Savage, Maryland
Current Conditions -  °F | °C
As of 9:33 PM on Wednesday 22 Oct 2014 (Local Time) from KFME Reporting Station
Overcast Overcast  
Wind Chill: 54°   Ceiling: 4100
Heat Index: 54°   Visibility: 10mi
Dew Point: 45°   Wind: 10mph
Humidity: 72%   Direction: 320°NW
Pressure: 29.95"   Gusts: 17mph
Location:  39.14°N, 76.82°W
Report Text: KFME 230133Z AUTO 32009G15KT 280V000 10SM SCT032 OVC041 12/07 A2995 RMK AO1
Loading
Personal Weather Stations






























Interactive Weather Map
Tropical Storm Tracking
New forecast layout! Learn more

10-Day Weather Forecast

Advertisements
Track Severe Weather on mobile